Time;durP1;ratioP1;P1;durP2;ratioP2;P2;SDS_P1;SDS_P2;PMS_P1;PMS_P2;Temp;Humidity;BMP_temperature;BMP_pressure;BME280_temperature;BME280_humidity;BME280_pressure;Samples;Min_cycle;Max_cycle;Signal;HPM_P1;HPM_P2
2022/11/18 00:00:00;;;;;;;35.72;20.92;;;;;;;7.90;54.26;100004.50;4985651;28;96746;-69
2022/11/18 00:02:27;;;;;;;36.55;21.88;;;;;;;7.96;54.21;99999.88;4986255;28;98890;-66
2022/11/18 00:04:53;;;;;;;31.38;19.25;;;;;;;8.14;53.40;100011.47;4990514;28;99373;-67
2022/11/18 00:07:20;;;;;;;33.38;19.60;;;;;;;8.14;53.28;100008.84;4992999;28;99291;-65
2022/11/18 00:09:46;;;;;;;32.45;21.33;;;;;;;7.98;53.67;100011.22;4994096;28;96821;-69
2022/11/18 00:14:58;;;;;;;35.08;20.67;;;;;;;8.02;53.41;100014.56;4987252;28;97226;-68
2022/11/18 00:17:25;;;;;;;32.70;21.23;;;;;;;8.12;53.15;99999.31;4991502;28;99152;-67
2022/11/18 00:19:51;;;;;;;32.47;19.92;;;;;;;8.12;53.01;99996.69;4992649;28;97162;-65
2022/11/18 00:22:18;;;;;;;32.92;20.85;;;;;;;8.12;53.35;99997.53;4988722;28;97336;-69
2022/11/18 00:24:44;;;;;;;32.65;21.05;;;;;;;7.93;53.56;100000.00;4989385;28;99329;-66
2022/11/18 00:27:11;;;;;;;33.75;21.00;;;;;;;8.00;53.44;100008.53;4989245;28;98988;-67
2022/11/18 00:29:39;;;;;;;34.45;20.98;;;;;;;8.00;53.72;100014.66;4992113;28;96930;-68
2022/11/18 00:32:06;;;;;;;33.88;19.85;;;;;;;7.95;52.92;100013.94;4993503;28;97171;-68
2022/11/18 00:34:32;;;;;;;31.83;19.75;;;;;;;8.07;53.63;100012.66;4988741;28;98990;-68
2022/11/18 00:36:59;;;;;;;31.95;20.67;;;;;;;8.05;53.28;100008.34;4991900;28;99706;-67
2022/11/18 00:39:26;;;;;;;30.80;20.25;;;;;;;8.01;52.79;100005.81;4990107;28;96990;-65
2022/11/18 00:44:37;;;;;;;32.20;19.95;;;;;;;7.92;52.55;100018.47;4991207;28;97183;-67
2022/11/18 00:47:05;;;;;;;32.58;19.38;;;;;;;7.91;52.80;100016.75;4991147;28;99227;-67
2022/11/18 00:49:31;;;;;;;28.65;19.23;;;;;;;8.11;52.13;100018.66;4987067;28;96844;-67
2022/11/18 00:51:58;;;;;;;29.17;18.35;;;;;;;8.14;51.96;100021.19;4988914;28;98282;-68
2022/11/18 00:54:25;;;;;;;30.55;19.25;;;;;;;8.11;51.59;100019.50;4987800;28;99308;-66
2022/11/18 00:56:52;;;;;;;31.20;19.45;;;;;;;8.09;51.47;100021.31;4990100;28;99120;-68
2022/11/18 00:59:18;;;;;;;33.85;19.70;;;;;;;8.08;51.41;100009.09;4988580;28;98763;-66
2022/11/18 01:01:44;;;;;;;33.53;20.08;;;;;;;8.06;51.43;100010.94;4987794;28;98563;-65
2022/11/18 01:04:12;;;;;;;29.23;19.20;;;;;;;8.21;51.05;100015.59;4989661;28;101544;-67
2022/11/18 01:06:39;;;;;;;32.38;19.73;;;;;;;7.85;51.20;100011.72;4990176;28;99417;-67
2022/11/18 01:09:08;;;;;;;31.20;18.65;;;;;;;7.96;51.32;100009.53;4988311;28;96931;-66
2022/11/18 01:14:19;;;;;;;31.15;19.80;;;;;;;7.74;51.37;100014.72;4988169;28;97204;-67
2022/11/18 01:16:49;;;;;;;31.73;18.95;;;;;;;7.83;51.32;100014.38;4990369;28;98896;-67
2022/11/18 01:19:17;;;;;;;31.73;20.65;;;;;;;7.61;51.48;100006.38;4993823;28;96725;-65
2022/11/18 01:21:44;;;;;;;28.58;18.23;;;;;;;7.65;51.86;100011.56;4993473;28;96775;-67
2022/11/18 01:24:11;;;;;;;29.30;18.35;;;;;;;7.68;50.90;100008.81;4987870;28;99509;-65
2022/11/18 01:26:38;;;;;;;28.60;18.00;;;;;;;7.79;51.22;100007.53;4990642;28;98961;-67
2022/11/18 01:29:04;;;;;;;29.25;18.98;;;;;;;7.68;51.25;100014.91;4989437;28;96800;-67
2022/11/18 01:31:31;;;;;;;29.45;17.63;;;;;;;7.86;50.70;100016.06;4988705;28;98532;-66
2022/11/18 01:34:00;;;;;;;28.30;18.02;;;;;;;7.89;50.48;100010.66;4988044;28;101359;-66
2022/11/18 01:36:28;;;;;;;27.35;17.73;;;;;;;7.86;50.42;100018.69;4989844;28;98798;-66
2022/11/18 01:38:56;;;;;;;26.17;16.83;;;;;;;7.79;50.35;100023.31;4989786;28;99137;-68
2022/11/18 01:41:28;;;;;;;32.28;17.58;;;;;;;7.89;49.98;100019.41;4989470;28;96914;-68
2022/11/18 01:43:57;;;;;;;29.50;18.42;;;;;;;7.80;50.42;100019.78;4986535;28;98579;-67
2022/11/18 01:46:28;;;;;;;26.35;17.70;;;;;;;7.52;50.37;100019.00;4983891;28;98883;-67
2022/11/18 01:49:00;;;;;;;27.25;17.85;;;;;;;7.51;50.78;100022.53;4990432;28;99219;-68
2022/11/18 01:51:33;;;;;;;25.23;16.67;;;;;;;7.53;50.39;100018.97;4985885;28;98448;-67
2022/11/18 01:54:03;;;;;;;28.63;18.15;;;;;;;7.39;50.76;100020.34;4988948;28;99387;-68
2022/11/18 01:56:37;;;;;;;26.92;18.00;;;;;;;7.38;50.78;100023.88;4987323;28;99041;-66
2022/11/18 01:59:07;;;;;;;28.23;18.90;;;;;;;7.46;50.84;100014.81;4987307;28;97528;-67
2022/11/18 02:01:34;;;;;;;26.75;18.20;;;;;;;7.58;50.30;100024.91;4990396;28;96944;-67
2022/11/18 02:04:00;;;;;;;26.77;18.35;;;;;;;7.49;50.37;100021.72;4989213;28;98869;-67
2022/11/18 02:06:28;;;;;;;26.10;17.77;;;;;;;7.56;50.29;100024.09;4990866;28;99021;-66
2022/11/18 02:08:56;;;;;;;29.52;18.30;;;;;;;7.37;50.63;100020.38;4988533;28;96857;-67
2022/11/18 02:14:10;;;;;;;28.10;18.05;;;;;;;7.26;50.67;100025.16;4987456;28;97185;-65
2022/11/18 02:16:48;;;;;;;24.58;17.23;;;;;;;7.31;50.46;100023.22;4987901;28;99203;-65
2022/11/18 02:19:32;;;;;;;29.75;19.40;;;;;;;7.34;50.48;100024.91;4985796;28;97915;-66
2022/11/18 02:22:12;;;;;;;27.63;18.45;;;;;;;7.58;49.98;100027.53;4987017;28;99014;-66
2022/11/18 02:24:46;;;;;;;28.35;17.67;;;;;;;7.52;50.24;100027.75;4992702;28;99816;-67
2022/11/18 02:27:41;;;;;;;32.20;18.95;;;;;;;7.54;49.70;100027.72;4988704;28;99592;-67
2022/11/18 02:30:11;;;;;;;27.92;18.75;;;;;;;7.30;50.15;100026.75;4988790;28;97064;-68
2022/11/18 02:32:43;;;;;;;27.77;17.48;;;;;;;7.35;50.56;100031.88;4989815;28;97329;-66
2022/11/18 02:35:16;;;;;;;26.67;18.40;;;;;;;7.41;50.21;100031.66;4988014;28;99295;-66
2022/11/18 02:37:47;;;;;;;30.52;19.02;;;;;;;7.51;49.92;100026.03;4988653;28;98785;-67
2022/11/18 02:40:19;;;;;;;30.63;17.45;;;;;;;7.41;50.01;100031.66;4990714;28;96813;-67
2022/11/18 02:42:50;;;;;;;26.95;17.52;;;;;;;7.40;50.23;100030.81;4985636;28;99537;-68
2022/11/18 02:45:19;;;;;;;28.25;18.17;;;;;;;7.35;49.98;100039.75;4989846;28;101397;-70
2022/11/18 02:47:49;;;;;;;30.15;18.15;;;;;;;7.12;50.50;100030.84;4988427;28;99832;-67
2022/11/18 02:50:19;;;;;;;27.92;18.08;;;;;;;7.19;50.56;100029.75;4991239;28;96916;-66
2022/11/18 02:52:47;;;;;;;27.63;17.55;;;;;;;7.22;50.42;100027.00;4984116;28;97177;-67
2022/11/18 02:55:15;;;;;;;26.48;17.65;;;;;;;7.05;50.81;100034.59;4987486;28;98964;-66
2022/11/18 02:57:44;;;;;;;29.05;18.85;;;;;;;7.28;50.45;100039.09;4986770;28;99189;-66
2022/11/18 03:00:12;;;;;;;27.33;18.83;;;;;;;7.29;50.19;100037.31;4987994;28;96864;-66
2022/11/18 03:02:45;;;;;;;31.83;18.65;;;;;;;7.37;49.98;100037.91;4991678;28;97015;-66
2022/11/18 03:05:19;;;;;;;27.95;18.60;;;;;;;7.17;50.27;100028.94;4989950;28;98968;-68
2022/11/18 03:07:50;;;;;;;27.00;17.77;;;;;;;7.17;50.07;100034.19;4988903;28;98940;-67
2022/11/18 03:10:18;;;;;;;30.25;18.95;;;;;;;7.10;49.96;100027.41;4990677;28;97023;-66
2022/11/18 03:12:52;;;;;;;31.08;19.10;;;;;;;6.87;50.63;100029.94;4986014;28;99217;-67
2022/11/18 03:15:29;;;;;;;28.83;19.23;;;;;;;7.08;50.81;100028.38;4980673;28;98195;-65
2022/11/18 03:18:06;;;;;;;27.05;18.83;;;;;;;7.16;50.76;100023.72;4984473;28;99453;-67
2022/11/18 03:20:37;;;;;;;29.98;19.60;;;;;;;7.07;50.55;100021.41;4987552;28;98537;-66
2022/11/18 03:23:10;;;;;;;29.42;19.13;;;;;;;7.00;51.01;100025.16;4983351;28;98629;-65
2022/11/18 03:25:40;;;;;;;33.30;20.65;;;;;;;7.04;51.06;100034.63;4981227;28;100737;-66
2022/11/18 03:28:11;;;;;;;31.73;20.08;;;;;;;6.86;51.89;100036.09;4985075;28;99537;-65
2022/11/18 03:30:43;;;;;;;32.33;20.55;;;;;;;6.87;52.40;100042.19;4987783;28;96803;-65
2022/11/18 03:33:16;;;;;;;33.97;20.67;;;;;;;6.80;52.61;100055.53;4987523;28;96836;-65
2022/11/18 03:35:47;;;;;;;33.97;21.05;;;;;;;6.90;53.19;100042.94;4989499;28;101349;-66
2022/11/18 03:38:17;;;;;;;30.95;20.88;;;;;;;7.01;52.65;100042.63;4986719;28;99137;-66
2022/11/18 03:40:50;;;;;;;38.33;22.00;;;;;;;6.92;53.25;100050.78;4987663;28;97721;-66
2022/11/18 03:43:24;;;;;;;32.40;21.50;;;;;;;7.17;52.34;100038.59;4983850;28;97849;-66
2022/11/18 03:45:54;;;;;;;34.05;21.65;;;;;;;7.03;52.47;100057.41;4985491;28;99070;-66
2022/11/18 03:48:26;;;;;;;34.45;22.10;;;;;;;6.86;52.86;100053.59;4984150;28;101389;-67
2022/11/18 03:50:57;;;;;;;33.08;21.52;;;;;;;6.75;53.05;100060.06;4987241;28;97252;-66
2022/11/18 03:53:27;;;;;;;35.90;22.88;;;;;;;6.94;52.50;100062.97;4988722;28;98000;-66
2022/11/18 03:56:01;;;;;;;34.70;21.92;;;;;;;6.62;53.30;100065.75;4986619;28;98950;-66
2022/11/18 03:58:31;;;;;;;32.78;21.23;;;;;;;6.62;52.90;100065.75;4985178;28;99237;-66
2022/11/18 04:01:04;;;;;;;34.17;22.00;;;;;;;7.00;52.31;100072.44;4985757;28;97797;-65
2022/11/18 04:03:32;;;;;;;39.33;22.95;;;;;;;6.66;52.27;100070.84;4989036;28;97406;-66
2022/11/18 04:06:09;;;;;;;34.20;21.23;;;;;;;6.71;52.45;100078.56;4984504;28;99422;-66
2022/11/18 04:08:42;;;;;;;34.15;21.42;;;;;;;6.72;52.70;100078.53;4982677;28;99261;-65
2022/11/18 04:12:01;;;;;;;33.55;21.98;;;;;;;6.62;52.67;100076.22;4984148;28;97423;-67
2022/11/18 04:14:04;;;;;;;36.42;23.95;;;;;;;6.40;53.32;100083.88;4988694;28;96832;-67
2022/11/18 04:16:30;;;;;;;34.05;21.08;;;;;;;6.37;53.67;100081.31;4983825;28;99054;-66
2022/11/18 04:18:58;;;;;;;37.78;22.80;;;;;;;6.42;53.52;100082.06;4987770;28;98770;-66
2022/11/18 04:21:25;;;;;;;37.92;24.13;;;;;;;6.58;53.64;100078.06;4988017;28;96909;-66
2022/11/18 04:23:51;;;;;;;44.15;24.83;;;;;;;6.48;54.05;100078.41;4986319;28;98846;-66
2022/11/18 04:26:18;;;;;;;39.72;24.70;;;;;;;6.63;53.14;100084.03;4986176;28;99221;-66
2022/11/18 04:28:44;;;;;;;42.88;25.67;;;;;;;6.43;53.81;100089.03;4987695;28;98813;-66
2022/11/18 04:31:10;;;;;;;47.75;27.00;;;;;;;6.40;54.37;100089.97;4989765;28;96759;-66
2022/11/18 04:33:37;;;;;;;48.65;28.02;;;;;;;6.37;53.97;100094.44;4983615;28;97285;-65
2022/11/18 04:36:09;;;;;;;48.38;27.55;;;;;;;6.53;54.15;100089.63;4984929;28;98966;-65
2022/11/18 04:38:35;;;;;;;50.30;27.80;;;;;;;6.21;54.67;100095.78;4990664;28;99674;-66
2022/11/18 04:41:02;;;;;;;48.63;28.48;;;;;;;6.20;55.44;100100.19;4986428;28;96867;-66
2022/11/18 04:43:28;;;;;;;47.50;27.80;;;;;;;6.43;55.51;100103.94;4985348;28;96713;-66
2022/11/18 04:45:54;;;;;;;50.20;28.83;;;;;;;6.46;55.71;100102.06;4981196;28;99603;-66
2022/11/18 04:48:21;;;;;;;49.17;27.40;;;;;;;6.53;54.75;100116.72;4983617;28;99132;-68
2022/11/18 04:50:47;;;;;;;50.60;28.70;;;;;;;6.51;55.00;100118.53;4989064;28;99123;-67
2022/11/18 04:53:15;;;;;;;48.78;28.50;;;;;;;6.62;54.32;100124.34;4988936;28;96924;-67
2022/11/18 04:55:42;;;;;;;55.33;30.25;;;;;;;6.58;54.62;100122.69;4987678;28;101641;-66
2022/11/18 04:58:08;;;;;;;53.50;31.67;;;;;;;6.30;54.79;100127.03;4990209;28;99538;-66
2022/11/18 05:00:35;;;;;;;55.58;31.38;;;;;;;6.27;54.96;100122.72;4986280;28;97160;-66
2022/11/18 05:03:01;;;;;;;53.63;29.95;;;;;;;6.21;54.94;100124.66;4988663;28;97756;-67
2022/11/18 05:05:28;;;;;;;58.63;32.15;;;;;;;6.04;56.22;100129.50;4989498;28;97362;-67
2022/11/18 05:07:54;;;;;;;63.22;32.92;;;;;;;6.16;56.41;100124.78;4988501;28;98864;-66
2022/11/18 05:10:22;;;;;;;57.42;32.97;;;;;;;6.16;55.73;100124.78;4987600;28;96869;-66
2022/11/18 05:12:48;;;;;;;59.85;31.95;;;;;;;6.10;56.43;100129.34;4987078;28;97060;-66
2022/11/18 05:15:14;;;;;;;;;;;;;;;6.04;55.33;100135.59;4990131;28;99057;-65
2022/11/18 05:17:41;;;;;;;53.78;29.73;;;;;;;5.96;55.79;100135.81;4989718;28;97561;-66
2022/11/18 05:20:09;;;;;;;54.88;31.15;;;;;;;6.07;55.74;100132.03;4989616;28;96843;-67
2022/11/18 05:22:35;;;;;;;61.97;32.28;;;;;;;6.26;55.07;100122.75;4986063;28;96881;-66
2022/11/18 05:25:02;;;;;;;55.08;31.05;;;;;;;6.26;54.86;100133.25;4989253;28;99250;-66
2022/11/18 05:27:30;;;;;;;55.65;31.40;;;;;;;6.21;55.12;100137.78;4987287;28;99188;-65
2022/11/18 05:29:56;;;;;;;59.60;31.00;;;;;;;6.19;54.46;100142.19;4987365;28;97272;-66
2022/11/18 05:32:23;;;;;;;53.25;29.48;;;;;;;6.35;54.34;100138.25;4987986;28;97780;-67
2022/11/18 05:34:52;;;;;;;56.33;30.05;;;;;;;6.31;53.76;100149.72;4988161;28;98883;-66
2022/11/18 05:37:18;;;;;;;54.55;30.58;;;;;;;5.99;54.62;100143.59;4982801;28;102779;-66
2022/11/18 05:39:45;;;;;;;57.08;30.88;;;;;;;6.07;54.17;100143.38;4990465;28;96806;-66
2022/11/18 05:45:11;;;;;;;49.28;27.52;;;;;;;5.99;53.58;100147.97;4925309;28;97692;-67
2022/11/18 05:50:18;;;;;;;47.40;25.75;;;;;;;6.32;52.21;100162.81;4983784;28;98885;-66
2022/11/18 05:52:44;;;;;;;47.97;26.52;;;;;;;6.27;52.42;100159.47;4986241;28;98860;-66
2022/11/18 05:55:13;;;;;;;47.90;26.67;;;;;;;6.30;52.64;100169.03;4989411;28;97833;-67
2022/11/18 05:57:40;;;;;;;43.42;25.02;;;;;;;6.45;52.05;100171.19;4988680;28;98806;-67
2022/11/18 06:03:31;;;;;;;41.00;23.83;;;;;;;6.17;52.20;100175.50;4978612;28;96820;-67
2022/11/18 06:06:01;;;;;;;40.75;23.77;;;;;;;6.13;52.27;100182.56;4982409;28;99467;-66
2022/11/18 06:08:31;;;;;;;41.05;23.15;;;;;;;6.10;52.13;100182.66;4980483;28;98934;-66
2022/11/18 06:10:58;;;;;;;35.60;21.45;;;;;;;6.17;51.40;100188.63;4983369;28;96860;-66
2022/11/18 06:13:28;;;;;;;36.55;21.27;;;;;;;6.32;51.14;100189.03;4984254;28;97807;-66
2022/11/18 06:15:58;;;;;;;34.10;20.88;;;;;;;6.08;51.08;100188.84;4984429;28;103803;-66
2022/11/18 06:18:27;;;;;;;35.40;20.73;;;;;;;6.17;51.20;100196.47;4988414;28;98831;-66
2022/11/18 06:20:58;;;;;;;37.33;21.48;;;;;;;6.12;50.54;100195.72;4984938;28;96792;-66
2022/11/18 06:23:26;;;;;;;30.80;19.35;;;;;;;6.19;50.38;100202.53;4983971;28;97163;-65
2022/11/18 06:25:53;;;;;;;32.08;20.20;;;;;;;6.25;49.71;100205.00;4991061;28;99238;-65
2022/11/18 06:28:21;;;;;;;32.75;18.52;;;;;;;5.95;49.74;100210.13;4985138;28;98828;-66
2022/11/18 06:30:48;;;;;;;33.70;18.65;;;;;;;5.98;50.18;100201.31;4984375;28;98544;-66
2022/11/18 06:33:14;;;;;;;33.22;19.20;;;;;;;5.91;50.43;100212.84;4984886;28;96849;-66
2022/11/18 06:35:43;;;;;;;31.75;19.48;;;;;;;5.90;49.69;100217.28;4990661;28;99424;-66
2022/11/18 06:38:10;;;;;;;30.23;18.17;;;;;;;5.74;49.64;100218.50;4989226;28;99206;-66
2022/11/18 06:40:36;;;;;;;31.40;18.92;;;;;;;5.79;49.76;100224.47;4989138;28;98327;-65
2022/11/18 06:48:31;;;;;;;31.05;18.98;;;;;;;6.09;49.96;100227.28;4985367;28;98602;-67
2022/11/18 06:50:59;;;;;;;33.15;18.52;;;;;;;5.94;49.06;100239.03;4983129;28;97014;-66
2022/11/18 06:53:26;;;;;;;29.35;18.45;;;;;;;5.82;49.89;100227.03;4984793;28;96894;-66
2022/11/18 06:55:52;;;;;;;28.10;18.00;;;;;;;6.10;49.36;100244.75;4984963;28;99449;-66
2022/11/18 06:58:19;;;;;;;31.70;18.85;;;;;;;6.09;48.72;100249.13;4987817;28;98290;-65
2022/11/18 07:00:46;;;;;;;28.65;17.98;;;;;;;6.28;47.82;100244.28;4982622;28;98290;-66
2022/11/18 07:03:12;;;;;;;29.95;18.88;;;;;;;5.98;47.82;100251.16;4990444;28;96945;-66
2022/11/18 07:05:39;;;;;;;30.67;18.63;;;;;;;6.04;47.75;100248.38;4988964;28;97867;-66
2022/11/18 07:08:06;;;;;;;32.60;17.90;;;;;;;5.87;47.97;100248.78;4984756;28;98747;-66
2022/11/18 07:10:33;;;;;;;30.83;18.05;;;;;;;6.05;47.31;100251.84;4990417;28;97290;-69
2022/11/18 07:12:59;;;;;;;29.73;17.95;;;;;;;5.76;47.72;100248.16;4991544;28;99306;-65
2022/11/18 07:15:26;;;;;;;32.08;18.70;;;;;;;5.86;48.08;100252.28;4992284;28;98118;-66
2022/11/18 07:17:53;;;;;;;32.63;17.70;;;;;;;5.67;47.73;100256.25;4989799;28;98050;-66
2022/11/18 07:20:21;;;;;;;30.10;17.55;;;;;;;5.72;47.53;100269.22;4991364;28;96866;-66
2022/11/18 07:22:48;;;;;;;31.15;18.05;;;;;;;5.59;47.63;100266.88;4991960;28;97130;-67
2022/11/18 07:25:16;;;;;;;33.42;20.15;;;;;;;5.75;48.05;100275.28;4986858;28;99247;-67
2022/11/18 07:27:42;;;;;;;33.50;17.92;;;;;;;5.67;47.89;100274.59;4986287;28;99230;-68
2022/11/18 07:30:13;;;;;;;31.42;18.48;;;;;;;5.80;47.47;100280.41;4992211;28;96721;-68
2022/11/18 07:32:39;;;;;;;37.03;19.80;;;;;;;5.73;47.66;100279.69;4990390;28;96834;-69
2022/11/18 07:35:10;;;;;;;29.27;17.85;;;;;;;5.92;47.65;100282.75;4987584;28;98841;-67
2022/11/18 07:37:37;;;;;;;32.42;19.35;;;;;;;5.87;47.96;100282.88;4991199;28;99052;-70
2022/11/18 07:40:04;;;;;;;37.42;20.52;;;;;;;5.99;47.58;100277.34;4991149;28;96966;-68
2022/11/18 07:42:41;;;;;;;30.15;18.00;;;;;;;6.05;47.22;100286.81;4987900;28;97186;-67
2022/11/18 07:45:11;;;;;;;33.17;18.58;;;;;;;5.93;46.63;100279.25;4988984;28;99260;-69
2022/11/18 07:47:38;;;;;;;34.85;19.52;;;;;;;5.72;47.02;100291.06;4989780;28;98812;-68
2022/11/18 07:50:06;;;;;;;34.92;19.25;;;;;;;5.73;47.30;100284.94;4985891;28;99129;-67
2022/11/18 07:52:32;;;;;;;34.35;19.13;;;;;;;5.84;46.61;100282.91;4986525;28;100489;-68
2022/11/18 07:54:59;;;;;;;30.42;17.85;;;;;;;5.86;47.40;100283.75;4982589;28;98085;-68
2022/11/18 07:57:25;;;;;;;31.05;18.42;;;;;;;5.91;46.49;100284.53;4986832;28;98912;-66
2022/11/18 07:59:53;;;;;;;31.38;18.60;;;;;;;6.14;45.94;100288.38;4985830;28;97080;-66
2022/11/18 08:02:19;;;;;;;33.85;19.92;;;;;;;6.03;45.86;100293.88;4986854;28;99257;-66
2022/11/18 08:04:46;;;;;;;31.30;18.20;;;;;;;6.03;45.88;100287.78;4990613;28;99554;-66
2022/11/18 08:07:12;;;;;;;34.28;19.50;;;;;;;6.04;46.38;100298.19;4986072;28;97598;-66
2022/11/18 08:09:39;;;;;;;33.25;19.60;;;;;;;6.11;45.55;100299.78;4987182;28;96851;-66
2022/11/18 08:12:06;;;;;;;32.85;18.48;;;;;;;6.09;45.13;100305.97;4987369;28;97672;-65
2022/11/18 08:14:32;;;;;;;37.65;18.85;;;;;;;5.80;45.67;100307.47;4989545;28;98927;-66
2022/11/18 08:17:01;;;;;;;34.00;19.00;;;;;;;6.05;45.56;100312.19;4988750;28;100818;-67
2022/11/18 08:19:27;;;;;;;33.55;19.95;;;;;;;6.11;45.50;100304.16;4984203;28;96964;-66
2022/11/18 08:21:54;;;;;;;33.10;18.95;;;;;;;6.05;45.27;100317.44;4986669;28;96821;-65
2022/11/18 08:24:20;;;;;;;32.50;18.92;;;;;;;5.85;45.71;100316.09;4990137;28;100843;-66
2022/11/18 08:26:47;;;;;;;30.85;17.23;;;;;;;5.93;45.80;100316.81;4995073;28;99162;-66
2022/11/18 08:29:13;;;;;;;30.80;18.38;;;;;;;5.74;45.76;100325.97;4990944;28;96749;-66
2022/11/18 08:31:40;;;;;;;31.52;18.13;;;;;;;5.74;45.55;100325.97;4991045;28;97811;-66
2022/11/18 08:34:08;;;;;;;30.38;18.77;;;;;;;5.75;45.77;100326.84;4994548;28;98142;-66
2022/11/18 08:36:37;;;;;;;30.20;17.58;;;;;;;5.57;46.06;100322.88;4989843;28;98828;-66
2022/11/18 08:39:05;;;;;;;33.72;18.15;;;;;;;5.84;45.70;100324.03;4982698;28;96810;-66
2022/11/18 08:41:34;;;;;;;36.13;19.70;;;;;;;5.83;45.63;100325.78;4991680;28;97407;-65
2022/11/18 08:44:00;;;;;;;29.33;17.63;;;;;;;6.02;45.70;100335.88;4986525;28;100137;-66
2022/11/18 08:46:30;;;;;;;34.17;19.77;;;;;;;6.07;45.28;100344.50;4987045;28;98826;-66
2022/11/18 08:48:57;;;;;;;32.03;18.27;;;;;;;6.04;45.39;100349.81;4985895;28;97053;-67
2022/11/18 08:51:26;;;;;;;29.80;17.52;;;;;;;5.97;45.45;100349.09;4990701;28;96824;-66
2022/11/18 08:53:55;;;;;;;29.73;17.52;;;;;;;5.84;45.41;100352.88;4991789;28;100932;-66
2022/11/18 08:56:23;;;;;;;33.67;18.13;;;;;;;5.70;45.28;100355.78;4991607;28;101487;-65
2022/11/18 08:58:50;;;;;;;27.85;16.20;;;;;;;5.33;45.74;100360.91;4987170;28;98574;-65
2022/11/18 09:01:17;;;;;;;27.65;16.90;;;;;;;5.34;45.49;100364.41;4987565;28;97503;-66
2022/11/18 09:03:43;;;;;;;29.02;16.95;;;;;;;5.40;45.81;100366.91;4973156;28;99845;-66
2022/11/18 09:06:12;;;;;;;29.50;16.98;;;;;;;5.40;46.31;100366.91;4987406;28;99024;-66
2022/11/18 09:08:40;;;;;;;30.88;17.85;;;;;;;5.42;46.11;100372.97;4987697;28;97512;-66
2022/11/18 09:11:07;;;;;;;33.72;17.27;;;;;;;5.58;45.55;100377.00;4987712;28;98137;-66
2022/11/18 09:13:34;;;;;;;32.28;18.35;;;;;;;5.72;45.33;100388.06;4987619;28;101551;-65
2022/11/18 09:16:04;;;;;;;28.27;15.48;;;;;;;5.52;44.99;100385.00;4988866;28;99502;-66
2022/11/18 09:18:33;;;;;;;28.90;16.30;;;;;;;5.57;45.81;100389.28;4988546;28;97406;-65
2022/11/18 09:21:01;;;;;;;29.60;17.08;;;;;;;5.54;45.66;100398.94;4989587;28;98113;-66
2022/11/18 09:23:27;;;;;;;28.58;15.65;;;;;;;5.55;45.87;100398.03;4988969;28;99250;-66
2022/11/18 09:25:59;;;;;;;28.38;16.83;;;;;;;5.66;45.81;100408.28;4989214;28;99257;-66
2022/11/18 09:28:29;;;;;;;29.77;16.63;;;;;;;5.74;45.50;100409.88;4989163;28;101514;-66
2022/11/18 09:30:55;;;;;;;27.02;16.08;;;;;;;5.68;45.97;100407.38;4987068;28;96898;-65
2022/11/18 09:33:22;;;;;;;27.92;15.73;;;;;;;5.89;45.89;100414.84;4986842;28;98998;-67
2022/11/18 09:35:48;;;;;;;29.45;16.05;;;;;;;5.66;45.83;100411.78;4985209;28;99195;-65
2022/11/18 09:38:15;;;;;;;25.98;15.65;;;;;;;5.90;45.78;100423.56;4989151;28;98922;-65
2022/11/18 09:40:58;;;;;;;24.48;15.63;;;;;;;5.95;45.64;100426.94;4988330;28;98556;-66
2022/11/18 09:43:34;;;;;;;25.15;14.80;;;;;;;5.82;45.05;100418.44;4983386;28;99396;-67
2022/11/18 09:46:15;;;;;;;24.35;13.63;;;;;;;5.75;45.32;100414.22;4987704;28;99533;-67
2022/11/18 09:51:36;;;;;;;22.83;13.13;;;;;;;5.43;46.51;100425.38;4971377;28;97023;-67
2022/11/18 09:54:02;;;;;;;21.65;12.95;;;;;;;5.56;46.27;100424.22;4987635;28;99318;-67
2022/11/18 09:56:30;;;;;;;22.08;12.93;;;;;;;5.58;45.86;100426.81;4986537;28;98819;-66
2022/11/18 09:58:57;;;;;;;24.65;13.45;;;;;;;5.98;45.62;100435.59;4987218;28;97073;-66
2022/11/18 10:01:24;;;;;;;19.48;12.63;;;;;;;6.04;45.30;100437.22;4981117;28;97274;-66
2022/11/18 10:03:51;;;;;;;22.98;11.60;;;;;;;6.11;44.67;100436.19;4979328;28;98198;-67
2022/11/18 10:06:25;;;;;;;17.45;10.65;;;;;;;6.00;44.40;100449.56;4989635;28;99677;-66
2022/11/18 10:09:05;;;;;;;23.08;9.45;;;;;;;5.93;44.61;100445.34;4989232;28;98337;-66
2022/11/18 10:11:38;;;;;;;13.05;8.80;;;;;;;6.24;44.12;100444.66;4980255;28;98787;-66
2022/11/18 10:14:22;;;;;;;16.30;8.07;;;;;;;6.03;43.81;100448.63;4987373;28;99294;-67
2022/11/18 10:16:59;;;;;;;14.10;7.47;;;;;;;6.04;43.57;100450.34;4987385;28;97844;-65
2022/11/18 10:19:33;;;;;;;15.48;7.55;;;;;;;6.08;43.57;100446.75;4989110;28;97574;-65
2022/11/18 10:22:19;;;;;;;13.90;7.68;;;;;;;6.02;43.78;100453.91;4987479;28;96815;-67
2022/11/18 10:24:49;;;;;;;11.33;7.30;;;;;;;6.00;43.46;100446.06;4986843;28;99439;-67
2022/11/18 10:27:16;;;;;;;10.10;7.40;;;;;;;6.14;43.71;100446.63;4987258;28;99318;-66
2022/11/18 10:29:45;;;;;;;11.30;7.43;;;;;;;6.31;43.32;100454.09;4986178;28;97047;-66
2022/11/18 10:32:14;;;;;;;10.98;6.93;;;;;;;6.28;43.42;100452.44;4982492;28;97723;-67
2022/11/18 10:34:48;;;;;;;11.07;7.35;;;;;;;6.50;42.90;100452.78;4985800;28;98971;-67
2022/11/18 10:37:23;;;;;;;9.10;6.18;;;;;;;6.05;43.43;100467.81;4987185;28;100007;-67
2022/11/18 10:39:51;;;;;;;13.20;6.93;;;;;;;5.80;44.02;100461.31;4988033;28;97996;-67
2022/11/18 10:42:24;;;;;;;11.13;6.85;;;;;;;5.90;43.77;100465.53;4987489;28;97287;-67
2022/11/18 10:44:52;;;;;;;11.73;7.32;;;;;;;5.92;44.23;100471.59;4976053;28;98234;-66
2022/11/18 10:47:28;;;;;;;12.20;6.75;;;;;;;6.07;43.86;100467.78;4990507;28;99142;-66
2022/11/18 10:49:57;;;;;;;9.60;6.97;;;;;;;6.06;43.84;100463.41;4985727;28;96867;-65
2022/11/18 10:52:24;;;;;;;10.77;6.72;;;;;;;6.21;43.67;100468.34;4985834;28;97270;-65
2022/11/18 10:55:23;;;;;;;10.50;6.78;;;;;;;6.22;43.02;100484.06;4987229;28;98918;-65
2022/11/18 10:57:56;;;;;;;11.45;6.47;;;;;;;6.18;43.17;100473.66;4991693;28;101692;-65
2022/11/18 11:00:37;;;;;;;11.25;7.28;;;;;;;6.27;43.30;100484.81;4988323;28;97269;-65
2022/11/18 11:03:21;;;;;;;9.30;6.03;;;;;;;6.38;43.15;100487.19;4986226;28;97354;-66
2022/11/18 11:05:48;;;;;;;10.85;7.05;;;;;;;6.34;43.18;100488.16;4976737;28;99283;-65
2022/11/18 11:08:20;;;;;;;11.10;7.25;;;;;;;6.33;42.85;100489.06;4988071;28;98755;-67
2022/11/18 11:10:55;;;;;;;10.45;6.70;;;;;;;6.36;42.43;100495.13;4988128;28;97220;-66
2022/11/18 11:13:25;;;;;;;6.80;4.90;;;;;;;6.08;42.87;100493.13;4991913;28;98832;-66
2022/11/18 11:15:56;;;;;;;9.52;6.43;;;;;;;6.07;43.44;100489.63;4987389;28;100847;-69
2022/11/18 11:18:41;;;;;;;10.50;7.03;;;;;;;5.97;43.93;100491.56;4989904;28;97557;-66
2022/11/18 11:21:12;;;;;;;14.55;8.02;;;;;;;5.95;44.19;100488.13;4988516;28;97518;-65
2022/11/18 11:23:43;;;;;;;11.93;7.57;;;;;;;6.00;44.11;100494.13;4990750;28;97289;-67
2022/11/18 11:26:20;;;;;;;17.85;8.82;;;;;;;6.06;44.14;100495.75;4986275;28;98559;-65
2022/11/18 11:28:57;;;;;;;16.13;8.53;;;;;;;6.04;43.63;100488.84;4990468;28;97711;-65
2022/11/18 11:31:34;;;;;;;13.50;7.93;;;;;;;5.99;44.25;100489.78;4989347;28;97190;-66
2022/11/18 11:34:10;;;;;;;17.85;8.73;;;;;;;6.01;43.94;100487.13;4986585;28;101503;-66
2022/11/18 11:36:47;;;;;;;14.05;8.60;;;;;;;6.08;43.90;100493.13;4990153;28;97878;-65
2022/11/18 11:39:39;;;;;;;14.27;8.68;;;;;;;6.11;43.85;100487.78;4986846;28;97469;-65
2022/11/18 11:42:19;;;;;;;13.43;8.75;;;;;;;6.27;43.66;100499.69;4987414;28;97826;-65
2022/11/18 11:44:59;;;;;;;12.68;7.90;;;;;;;6.61;43.81;100494.56;4988379;28;97053;-67
2022/11/18 11:47:47;;;;;;;19.83;7.95;;;;;;;6.60;43.41;100493.69;4986606;28;99399;-67
2022/11/18 11:50:19;;;;;;;13.88;8.32;;;;;;;6.82;43.12;100493.19;4985958;28;98834;-68
2022/11/18 11:52:57;;;;;;;11.70;8.27;;;;;;;6.75;42.96;100492.47;4989619;28;97940;-65
2022/11/18 11:55:30;;;;;;;16.55;7.88;;;;;;;6.83;43.08;100502.81;4985189;28;97268;-66
2022/11/18 11:58:22;;;;;;;13.73;8.35;;;;;;;6.80;42.81;100499.34;4988806;28;98919;-67